This is the latest recevied weather packets stored in our database for station/object DL6JOE-10. If no packets are shown the sender has not sent any weather packets the latest 1 day(s).
| Time | Temp. | Humidity | Pressure | Rain* | Wind** | Luminosity | Snow |
|---|---|---|---|---|---|---|---|
| 1778044007 | 13.33° C | 54% | 953.9 hPa | - | - | - | - |
| 1778043107 | 13.33° C | 56% | 954 hPa | - | - | - | - |
| 1778042207 | 13.33° C | 56% | 954.1 hPa | - | - | - | - |
| 1778041307 | 13.33° C | 55% | 954.3 hPa | - | - | - | - |
| 1778040407 | 13.33° C | 56% | 954.3 hPa | - | - | - | - |
| 1778039507 | 13.33° C | 56% | 954.4 hPa | - | - | - | - |
| 1778038607 | 13.89° C | 56% | 954.5 hPa | - | - | - | - |
| 1778037707 | 13.89° C | 56% | 954.6 hPa | - | - | - | - |
| 1778035906 | 14.44° C | 55% | 954.7 hPa | - | - | - | - |
| 1778035006 | 14.44° C | 56% | 954.8 hPa | - | - | - | - |
| 1778034106 | 14.44° C | 56% | 954.8 hPa | - | - | - | - |
| 1778033206 | 14.44° C | 55% | 954.8 hPa | - | - | - | - |
| 1778032306 | 14.44° C | 56% | 954.7 hPa | - | - | - | - |
| 1778031406 | 14.44° C | 55% | 954.9 hPa | - | - | - | - |
| 1778030506 | 15° C | 55% | 955.2 hPa | - | - | - | - |
| 1778029606 | 15° C | 54% | 955.1 hPa | - | - | - | - |
| 1778028706 | 15° C | 54% | 955 hPa | - | - | - | - |
| 1778027806 | 15.56° C | 55% | 955 hPa | - | - | - | - |
| 1778026906 | 15.56° C | 55% | 955.1 hPa | - | - | - | - |
| 1778020605 | 16.67° C | 53% | 955.6 hPa | - | - | - | - |
| 1778018809 | 17.22° C | 51% | 955.6 hPa | - | - | - | - |
| 1778017905 | 17.22° C | 51% | 955.5 hPa | - | - | - | - |
| 1778008904 | 20° C | 45% | 954.7 hPa | - | - | - | - |
| 1778008004 | 20° C | 45% | 954.5 hPa | - | - | - | - |
| 1778007104 | 20.56° C | 45% | 954.4 hPa | - | - | - | - |
* Rain since midnight (hover to see other rain measurements)
** Current wind speed in m/s (hover to see current wind gust speed)